Time;durP1;ratioP1;P1;durP2;ratioP2;P2;SDS_P1;SDS_P2;PMS_P1;PMS_P2;Temp;Humidity;BMP_temperature;BMP_pressure;BME280_temperature;BME280_humidity;BME280_pressure;Samples;Min_cycle;Max_cycle;Signal;HPM_P1;HPM_P2
2023/12/08 00:01:58;;;;;;;64.38;23.27;;;;;;;;;;4937686;29;20543;-84
2023/12/08 00:04:27;;;;;;;61.92;22.88;;;;;;;;;;4926133;29;20167;-84
2023/12/08 00:06:53;;;;;;;66.30;23.80;;;;;;;;;;4919445;28;20042;-84
2023/12/08 00:09:30;;;;;;;61.53;22.33;;;;;;;;;;4928397;28;20058;-84
2023/12/08 00:11:56;;;;;;;68.03;25.75;;;;;;;;;;4945799;28;20499;-84
2023/12/08 00:14:21;;;;;;;65.28;23.35;;;;;;;;;;4944674;28;20038;-84
2023/12/08 00:16:46;;;;;;;59.85;22.05;;;;;;;;;;4944263;28;20158;-85
2023/12/08 00:19:12;;;;;;;65.68;23.98;;;;;;;;;;4925230;28;20117;-84
2023/12/08 00:21:37;;;;;;;62.42;23.92;;;;;;;;;;4944028;28;20031;-84
2023/12/08 00:24:03;;;;;;;62.72;23.90;;;;;;;;;;4935501;28;20035;-84
2023/12/08 00:26:29;;;;;;;59.72;23.45;;;;;;;;;;4940539;28;20545;-84
2023/12/08 00:28:58;;;;;;;69.00;23.48;;;;;;;;;;4934769;28;20039;-84
2023/12/08 00:31:24;;;;;;;56.97;23.05;;;;;;;;;;4940498;28;20039;-84
2023/12/08 00:33:49;;;;;;;64.85;24.85;;;;;;;;;;4933116;28;20039;-84
2023/12/08 00:36:17;;;;;;;60.63;23.85;;;;;;;;;;4919045;28;20058;-84
2023/12/08 00:38:46;;;;;;;62.72;24.13;;;;;;;;;;4946377;28;20451;-84
2023/12/08 00:41:11;;;;;;;65.97;23.60;;;;;;;;;;4932893;28;20027;-83
2023/12/08 00:43:40;;;;;;;64.28;24.95;;;;;;;;;;4924546;28;20059;-84
2023/12/08 00:46:06;;;;;;;67.20;25.45;;;;;;;;;;4934684;28;20057;-84
2023/12/08 00:48:31;;;;;;;62.58;24.25;;;;;;;;;;4945369;28;20070;-84
2023/12/08 00:50:56;;;;;;;60.05;24.55;;;;;;;;;;4945488;28;20046;-84
2023/12/08 00:53:22;;;;;;;68.15;24.50;;;;;;;;;;4933241;28;20470;-85
2023/12/08 00:55:47;;;;;;;67.38;25.58;;;;;;;;;;4946139;28;20586;-85
2023/12/08 00:58:14;;;;;;;64.03;26.35;;;;;;;;;;4917025;28;20557;-85
2023/12/08 01:00:40;;;;;;;65.45;25.42;;;;;;;;;;4946539;28;20042;-85
2023/12/08 01:03:05;;;;;;;70.03;25.63;;;;;;;;;;4932282;28;20031;-85
2023/12/08 01:05:31;;;;;;;67.13;24.63;;;;;;;;;;4938224;28;20039;-84
2023/12/08 01:07:56;;;;;;;66.22;24.83;;;;;;;;;;4931125;28;20038;-85
2023/12/08 01:10:24;;;;;;;70.82;25.73;;;;;;;;;;4945795;28;20609;-84
2023/12/08 01:12:57;;;;;;;67.07;25.80;;;;;;;;;;4923214;28;21861;-84
2023/12/08 01:15:23;;;;;;;69.90;25.40;;;;;;;;;;4961598;28;20048;-85
2023/12/08 01:17:48;;;;;;;72.28;25.23;;;;;;;;;;4933827;28;20517;-84
2023/12/08 01:20:13;;;;;;;67.80;26.65;;;;;;;;;;4937936;28;20451;-84
2023/12/08 01:22:39;;;;;;;68.13;26.17;;;;;;;;;;4948998;28;20038;-84
2023/12/08 01:25:06;;;;;;;66.32;25.70;;;;;;;;;;4936459;28;20481;-85
2023/12/08 01:27:31;;;;;;;72.40;26.10;;;;;;;;;;4947603;28;20039;-84
2023/12/08 01:29:56;;;;;;;78.63;26.02;;;;;;;;;;4935541;28;20533;-84
2023/12/08 01:32:28;;;;;;;64.22;23.65;;;;;;;;;;4939125;28;20071;-84
2023/12/08 01:34:53;;;;;;;71.60;24.80;;;;;;;;;;4946634;28;20039;-84
2023/12/08 01:37:39;;;;;;;70.90;24.92;;;;;;;;;;4934807;28;20464;-85
2023/12/08 01:40:06;;;;;;;65.50;22.92;;;;;;;;;;4848145;29;20124;-84
2023/12/08 01:42:32;;;;;;;67.10;23.15;;;;;;;;;;4847148;29;20158;-85
2023/12/08 01:44:57;;;;;;;64.40;23.33;;;;;;;;;;4848528;29;20238;-84
2023/12/08 01:47:23;;;;;;;62.28;22.95;;;;;;;;;;4861179;29;20169;-84
2023/12/08 01:49:51;;;;;;;71.57;23.15;;;;;;;;;;4863172;29;20128;-85
2023/12/08 01:52:21;;;;;;;69.18;24.02;;;;;;;;;;4850628;29;20045;-84
2023/12/08 01:54:47;;;;;;;64.45;23.45;;;;;;;;;;4834565;29;20537;-84
2023/12/08 01:57:19;;;;;;;65.90;22.80;;;;;;;;;;4859862;29;20190;-84
2023/12/08 01:59:46;;;;;;;67.22;23.05;;;;;;;;;;4861532;29;20069;-84
2023/12/08 02:02:12;;;;;;;64.80;22.73;;;;;;;;;;4839967;29;20076;-84
2023/12/08 02:04:39;;;;;;;67.38;23.85;;;;;;;;;;4849763;29;20079;-84
2023/12/08 02:07:05;;;;;;;67.63;23.85;;;;;;;;;;4847472;29;20399;-85
2023/12/08 02:09:30;;;;;;;71.25;25.02;;;;;;;;;;4847662;29;20078;-84
2023/12/08 02:11:56;;;;;;;68.65;23.30;;;;;;;;;;4862675;29;20061;-84
2023/12/08 02:14:21;;;;;;;68.63;22.60;;;;;;;;;;4839927;29;20080;-83
2023/12/08 02:16:54;;;;;;;70.85;24.13;;;;;;;;;;4879764;28;20085;-84
2023/12/08 02:19:19;;;;;;;77.80;24.45;;;;;;;;;;4963919;28;20066;-84
2023/12/08 02:21:45;;;;;;;69.93;24.25;;;;;;;;;;4944339;28;20510;-84
2023/12/08 02:24:10;;;;;;;72.28;24.23;;;;;;;;;;4939622;28;20047;-84
2023/12/08 02:26:36;;;;;;;81.80;24.73;;;;;;;;;;4943685;28;20046;-84
2023/12/08 02:29:01;;;;;;;72.28;24.17;;;;;;;;;;4933530;28;20613;-84
2023/12/08 02:32:01;;;;;;;75.65;24.27;;;;;;;;;;4931745;28;20045;-84
2023/12/08 02:34:30;;;;;;;71.88;22.80;;;;;;;;;;4926475;28;20073;-84
2023/12/08 02:36:58;;;;;;;79.80;23.88;;;;;;;;;;4931960;28;20092;-84
2023/12/08 02:39:25;;;;;;;81.38;25.00;;;;;;;;;;4926665;28;20034;-84
2023/12/08 02:41:50;;;;;;;74.68;24.23;;;;;;;;;;4917827;28;20039;-84
2023/12/08 02:44:16;;;;;;;74.05;23.83;;;;;;;;;;4942621;28;20049;-83
2023/12/08 02:46:42;;;;;;;74.30;24.63;;;;;;;;;;4942313;28;20105;-85
2023/12/08 02:49:16;;;;;;;74.22;23.95;;;;;;;;;;4950173;28;20038;-83
2023/12/08 02:51:41;;;;;;;72.40;24.75;;;;;;;;;;4931431;28;20072;-84
2023/12/08 02:54:07;;;;;;;72.68;25.63;;;;;;;;;;4942311;28;20038;-84
2023/12/08 02:56:39;;;;;;;75.68;25.13;;;;;;;;;;4943226;28;20065;-82
2023/12/08 02:59:05;;;;;;;75.75;24.90;;;;;;;;;;4922566;28;20585;-84
2023/12/08 03:01:53;;;;;;;82.07;25.98;;;;;;;;;;4940163;28;20034;-84
2023/12/08 03:04:21;;;;;;;73.20;25.08;;;;;;;;;;4891215;29;20071;-83
2023/12/08 03:06:47;;;;;;;73.50;26.17;;;;;;;;;;4868027;29;20044;-84
2023/12/08 03:09:13;;;;;;;78.90;26.48;;;;;;;;;;4887110;29;20849;-84
2023/12/08 03:11:38;;;;;;;71.40;24.17;;;;;;;;;;4885590;29;20084;-84
2023/12/08 03:14:04;;;;;;;75.30;26.52;;;;;;;;;;4883915;29;20561;-84
2023/12/08 03:16:29;;;;;;;74.78;25.00;;;;;;;;;;4870801;29;20040;-83
2023/12/08 03:18:55;;;;;;;69.50;25.33;;;;;;;;;;4885029;29;20479;-84
2023/12/08 03:21:24;;;;;;;73.85;25.95;;;;;;;;;;4885395;29;20072;-83
2023/12/08 03:23:50;;;;;;;70.28;26.95;;;;;;;;;;4873742;29;20141;-84
2023/12/08 03:26:21;;;;;;;63.03;25.52;;;;;;;;;;4876476;29;20044;-84
2023/12/08 03:28:47;;;;;;;69.85;25.98;;;;;;;;;;4884130;29;20500;-84
2023/12/08 03:31:30;;;;;;;69.72;25.50;;;;;;;;;;4870335;29;20044;-84
2023/12/08 03:33:56;;;;;;;71.40;25.77;;;;;;;;;;4888567;29;20128;-84
2023/12/08 03:36:21;;;;;;;65.60;25.08;;;;;;;;;;4885176;29;20626;-84
2023/12/08 03:38:47;;;;;;;60.30;25.48;;;;;;;;;;4862650;29;20036;-84
2023/12/08 03:41:23;;;;;;;65.80;25.10;;;;;;;;;;4916751;28;20030;-84
2023/12/08 03:43:49;;;;;;;63.50;24.47;;;;;;;;;;4934464;28;20169;-84
2023/12/08 03:46:14;;;;;;;72.65;26.17;;;;;;;;;;4947898;28;20177;-84
2023/12/08 03:48:40;;;;;;;66.93;26.00;;;;;;;;;;4926207;28;20495;-84
2023/12/08 03:51:06;;;;;;;69.50;25.23;;;;;;;;;;4945928;28;20085;-84
2023/12/08 03:53:39;;;;;;;68.50;26.08;;;;;;;;;;4935011;28;20074;-84
2023/12/08 03:56:06;;;;;;;61.33;24.35;;;;;;;;;;4938095;28;20038;-83
2023/12/08 03:58:40;;;;;;;64.55;25.52;;;;;;;;;;4897744;28;20050;-84
2023/12/08 04:01:06;;;;;;;63.88;24.88;;;;;;;;;;4928913;28;20125;-84
2023/12/08 04:03:31;;;;;;;66.18;25.90;;;;;;;;;;4941956;28;20061;-83
2023/12/08 04:06:00;;;;;;;70.28;25.42;;;;;;;;;;4940446;28;20483;-85
2023/12/08 04:08:25;;;;;;;69.05;26.50;;;;;;;;;;4934368;28;20042;-85
2023/12/08 04:10:50;;;;;;;66.93;25.95;;;;;;;;;;4934792;28;20699;-85
2023/12/08 04:13:16;;;;;;;63.45;25.60;;;;;;;;;;4963084;28;20561;-84
2023/12/08 04:15:41;;;;;;;64.50;26.10;;;;;;;;;;4923334;29;20039;-84
2023/12/08 04:18:06;;;;;;;65.80;25.60;;;;;;;;;;4921344;28;20095;-84
2023/12/08 04:20:32;;;;;;;58.65;24.33;;;;;;;;;;4927728;28;20550;-84
2023/12/08 04:22:58;;;;;;;68.80;25.73;;;;;;;;;;4918173;29;20045;-84
2023/12/08 04:25:23;;;;;;;64.50;24.95;;;;;;;;;;4937326;28;20051;-84
2023/12/08 04:27:51;;;;;;;66.07;25.15;;;;;;;;;;4946832;28;20497;-84
2023/12/08 04:30:16;;;;;;;;;;;;;;;;;;4932649;28;20126;-84
2023/12/08 04:32:42;;;;;;;62.47;24.20;;;;;;;;;;4940719;28;20001;-83
2023/12/08 04:35:07;;;;;;;63.03;25.42;;;;;;;;;;4923432;28;20059;-84
2023/12/08 04:37:39;;;;;;;63.50;24.70;;;;;;;;;;4931794;28;20031;-83
2023/12/08 04:40:05;;;;;;;65.28;25.35;;;;;;;;;;4945924;28;20059;-83
2023/12/08 04:42:36;;;;;;;62.70;25.58;;;;;;;;;;4929019;29;20066;-85
2023/12/08 04:45:01;;;;;;;62.28;24.63;;;;;;;;;;4943098;28;20452;-84
2023/12/08 04:47:27;;;;;;;60.40;24.75;;;;;;;;;;4933916;28;20035;-84
2023/12/08 04:49:59;;;;;;;55.05;24.80;;;;;;;;;;4926407;28;20043;-83
2023/12/08 04:52:24;;;;;;;63.72;25.50;;;;;;;;;;4905207;29;20039;-82
2023/12/08 04:54:50;;;;;;;58.67;24.77;;;;;;;;;;4939398;28;20134;-83
2023/12/08 04:57:15;;;;;;;59.20;24.10;;;;;;;;;;4942394;28;20079;-84
2023/12/08 04:59:40;;;;;;;59.95;24.52;;;;;;;;;;4948021;28;20166;-84
2023/12/08 05:02:06;;;;;;;60.20;25.63;;;;;;;;;;4914656;28;20032;-84
2023/12/08 05:04:31;;;;;;;64.20;25.85;;;;;;;;;;4940620;28;20047;-84
2023/12/08 05:06:57;;;;;;;61.53;25.58;;;;;;;;;;4942412;29;20061;-84
2023/12/08 05:09:22;;;;;;;62.95;26.13;;;;;;;;;;4932648;29;20050;-84
2023/12/08 05:11:48;;;;;;;59.25;24.52;;;;;;;;;;4929376;29;20051;-84
2023/12/08 05:14:16;;;;;;;57.92;25.08;;;;;;;;;;4921163;28;20047;-85
2023/12/08 05:16:42;;;;;;;63.67;25.92;;;;;;;;;;4921195;29;20039;-83
2023/12/08 05:19:07;;;;;;;58.08;24.45;;;;;;;;;;4941158;28;20039;-83
2023/12/08 05:21:33;;;;;;;60.83;24.95;;;;;;;;;;4925628;28;20179;-82
2023/12/08 05:23:58;;;;;;;60.63;25.23;;;;;;;;;;4927560;29;20032;-83
2023/12/08 05:26:25;;;;;;;61.80;25.67;;;;;;;;;;4923713;28;20508;-83
2023/12/08 05:28:50;;;;;;;61.17;26.20;;;;;;;;;;4928339;28;20050;-83
2023/12/08 05:31:25;;;;;;;54.58;24.00;;;;;;;;;;4947785;28;20394;-85
2023/12/08 05:33:50;;;;;;;63.78;24.55;;;;;;;;;;4950318;28;20048;-84
2023/12/08 05:36:17;;;;;;;56.88;24.20;;;;;;;;;;4929734;29;20391;-85
2023/12/08 05:38:42;;;;;;;58.70;24.77;;;;;;;;;;4916894;28;20066;-84
2023/12/08 05:41:08;;;;;;;59.83;24.77;;;;;;;;;;4932220;29;20134;-84
2023/12/08 05:43:33;;;;;;;56.13;25.02;;;;;;;;;;4916635;28;20074;-85
2023/12/08 05:45:59;;;;;;;59.95;26.30;;;;;;;;;;4915446;29;20637;-84
2023/12/08 05:48:24;;;;;;;59.30;25.25;;;;;;;;;;4917967;29;20061;-85
2023/12/08 05:50:50;;;;;;;61.70;26.60;;;;;;;;;;4920937;29;20039;-84
2023/12/08 05:53:15;;;;;;;61.85;25.30;;;;;;;;;;4927098;28;20031;-85
2023/12/08 05:55:41;;;;;;;60.22;25.10;;;;;;;;;;4940752;28;20039;-85
2023/12/08 05:58:15;;;;;;;63.15;25.38;;;;;;;;;;4941796;28;20066;-85
2023/12/08 06:00:41;;;;;;;63.70;25.58;;;;;;;;;;4928577;28;20369;-85
2023/12/08 06:03:07;;;;;;;62.75;25.17;;;;;;;;;;4920388;29;20040;-85
2023/12/08 06:05:32;;;;;;;63.33;25.73;;;;;;;;;;4939626;28;20447;-85
2023/12/08 06:07:58;;;;;;;60.35;25.52;;;;;;;;;;4943202;29;20066;-85
2023/12/08 06:10:23;;;;;;;68.50;25.75;;;;;;;;;;4930420;28;20122;-85
2023/12/08 06:12:49;;;;;;;60.55;24.90;;;;;;;;;;4931129;28;20145;-86
2023/12/08 06:15:14;;;;;;;62.83;25.67;;;;;;;;;;4915707;29;20035;-84
2023/12/08 06:17:39;;;;;;;67.07;26.30;;;;;;;;;;4940027;28;20534;-84
2023/12/08 06:20:08;;;;;;;56.83;24.15;;;;;;;;;;4945476;28;20031;-84
2023/12/08 06:22:37;;;;;;;60.63;24.77;;;;;;;;;;4936213;28;20459;-84
2023/12/08 06:25:02;;;;;;;56.95;24.77;;;;;;;;;;4944750;28;20070;-84
2023/12/08 06:27:28;;;;;;;65.57;25.98;;;;;;;;;;4925140;29;20043;-85
2023/12/08 06:29:53;;;;;;;63.58;26.60;;;;;;;;;;4941256;29;20503;-85
2023/12/08 06:32:18;;;;;;;57.88;25.27;;;;;;;;;;4923576;28;20035;-84
2023/12/08 06:34:46;;;;;;;59.25;24.45;;;;;;;;;;4934003;28;20040;-85
2023/12/08 06:37:12;;;;;;;;;;;;;;;;;;4946139;28;20046;-84
2023/12/08 06:39:39;;;;;;;58.05;24.33;;;;;;;;;;4945255;28;19918;-85
2023/12/08 06:42:04;;;;;;;60.80;25.33;;;;;;;;;;4924124;28;20059;-85
2023/12/08 06:44:30;;;;;;;58.28;24.70;;;;;;;;;;4942301;29;20132;-85
2023/12/08 06:46:55;;;;;;;58.70;24.63;;;;;;;;;;4932966;29;20035;-84
2023/12/08 06:49:24;;;;;;;60.08;25.00;;;;;;;;;;4941212;28;20639;-85
2023/12/08 06:51:49;;;;;;;60.90;25.30;;;;;;;;;;4950137;28;20043;-84
2023/12/08 06:54:14;;;;;;;63.63;25.58;;;;;;;;;;4918370;28;20109;-85
2023/12/08 06:56:42;;;;;;;64.53;26.30;;;;;;;;;;4940756;28;20459;-85
2023/12/08 06:59:08;;;;;;;59.53;25.05;;;;;;;;;;4926712;28;20102;-85
2023/12/08 07:01:34;;;;;;;59.35;24.83;;;;;;;;;;4915662;29;20069;-84
2023/12/08 07:03:59;;;;;;;61.78;24.77;;;;;;;;;;4925873;29;20055;-85
2023/12/08 07:06:25;;;;;;;60.10;25.40;;;;;;;;;;4943667;29;20050;-85
2023/12/08 07:08:50;;;;;;;57.72;25.80;;;;;;;;;;4918686;28;20121;-85
2023/12/08 07:11:15;;;;;;;54.50;25.27;;;;;;;;;;4933872;28;20039;-85
2023/12/08 07:13:41;;;;;;;61.17;26.30;;;;;;;;;;4933217;28;20787;-85
2023/12/08 07:16:09;;;;;;;64.35;25.90;;;;;;;;;;4909185;28;20042;-85
2023/12/08 07:18:37;;;;;;;56.13;24.85;;;;;;;;;;4924118;28;20043;-84
2023/12/08 07:21:03;;;;;;;59.60;24.85;;;;;;;;;;4923658;28;20503;-85
2023/12/08 07:23:28;;;;;;;55.67;25.13;;;;;;;;;;4942379;29;20101;-85
2023/12/08 07:25:54;;;;;;;58.85;25.52;;;;;;;;;;4923370;29;20043;-84
2023/12/08 07:28:19;;;;;;;54.60;25.38;;;;;;;;;;4935659;29;20043;-85
2023/12/08 07:30:44;;;;;;;55.42;24.25;;;;;;;;;;4934619;28;20503;-84
2023/12/08 07:33:10;;;;;;;57.50;25.33;;;;;;;;;;4930674;29;20047;-84
2023/12/08 07:35:35;;;;;;;50.83;24.20;;;;;;;;;;4913445;28;20119;-85
2023/12/08 07:38:01;;;;;;;57.25;25.27;;;;;;;;;;4917152;28;20090;-84
2023/12/08 07:40:29;;;;;;;58.17;24.48;;;;;;;;;;4929407;29;20526;-85
2023/12/08 07:42:55;;;;;;;53.08;24.90;;;;;;;;;;4907455;28;20039;-85
2023/12/08 07:45:22;;;;;;;48.92;24.45;;;;;;;;;;4933306;29;20142;-85
2023/12/08 07:47:48;;;;;;;;;;;;;;;;;;4913480;28;20102;-85
2023/12/08 07:50:14;;;;;;;50.50;23.05;;;;;;;;;;4956851;28;19915;-85
2023/12/08 07:52:41;;;;;;;55.50;24.65;;;;;;;;;;4918717;29;21126;-85
2023/12/08 07:55:08;;;;;;;;;;;;;;;;;;4929164;29;20043;-84
2023/12/08 07:57:36;;;;;;;53.33;23.90;;;;;;;;;;4921252;29;20056;-84
2023/12/08 08:00:10;;;;;;;49.33;24.20;;;;;;;;;;4928375;28;20043;-84
2023/12/08 08:02:36;;;;;;;49.75;22.50;;;;;;;;;;4940920;28;20051;-84
2023/12/08 08:05:02;;;;;;;43.35;21.58;;;;;;;;;;4931716;29;20039;-85
2023/12/08 08:07:28;;;;;;;52.17;23.63;;;;;;;;;;4936820;28;20044;-85
2023/12/08 08:09:58;;;;;;;44.30;21.90;;;;;;;;;;4942213;28;20042;-84
2023/12/08 08:12:24;;;;;;;44.60;21.85;;;;;;;;;;4910177;28;20047;-84
2023/12/08 08:14:49;;;;;;;43.90;21.63;;;;;;;;;;4931442;28;20043;-84
2023/12/08 08:17:21;;;;;;;41.33;22.23;;;;;;;;;;4917818;29;20063;-85
2023/12/08 08:19:47;;;;;;;40.17;20.52;;;;;;;;;;4908087;29;20078;-82
2023/12/08 08:22:12;;;;;;;41.90;21.73;;;;;;;;;;4905629;29;20063;-82
2023/12/08 08:24:38;;;;;;;41.90;20.52;;;;;;;;;;4925021;28;20062;-83
2023/12/08 08:27:04;;;;;;;38.28;20.23;;;;;;;;;;4909743;28;20038;-82
2023/12/08 08:29:30;;;;;;;39.73;20.27;;;;;;;;;;4932625;29;20118;-82
2023/12/08 08:31:55;;;;;;;39.63;20.23;;;;;;;;;;4925730;28;20286;-83
2023/12/08 08:34:20;;;;;;;37.72;19.70;;;;;;;;;;4927373;28;20189;-83
2023/12/08 08:36:46;;;;;;;38.10;20.48;;;;;;;;;;4939229;28;20055;-82
2023/12/08 08:39:12;;;;;;;37.53;19.25;;;;;;;;;;4945370;28;20042;-82
2023/12/08 08:41:45;;;;;;;38.30;19.88;;;;;;;;;;4958800;28;20039;-82
2023/12/08 08:44:23;;;;;;;39.65;19.13;;;;;;;;;;4936134;28;20047;-82
2023/12/08 08:46:51;;;;;;;36.08;18.15;;;;;;;;;;4926823;28;20050;-81
2023/12/08 08:49:16;;;;;;;35.97;19.27;;;;;;;;;;4902022;28;20123;-82
2023/12/08 08:51:43;;;;;;;40.25;20.10;;;;;;;;;;4923657;28;20122;-82
2023/12/08 08:54:09;;;;;;;35.30;18.20;;;;;;;;;;4918983;28;20044;-83
2023/12/08 08:56:34;;;;;;;36.85;19.50;;;;;;;;;;4941804;28;20047;-83
2023/12/08 08:59:05;;;;;;;35.70;19.40;;;;;;;;;;4941944;28;20058;-83
2023/12/08 09:01:38;;;;;;;36.30;18.23;;;;;;;;;;4926805;28;20059;-83
2023/12/08 09:04:04;;;;;;;34.60;18.55;;;;;;;;;;4914014;29;20421;-83
2023/12/08 09:06:29;;;;;;;34.38;18.55;;;;;;;;;;4923782;28;20042;-83
2023/12/08 09:08:55;;;;;;;35.60;18.50;;;;;;;;;;4943017;28;20447;-83
2023/12/08 09:11:21;;;;;;;35.05;17.33;;;;;;;;;;4930221;29;20177;-82
2023/12/08 09:13:53;;;;;;;35.58;18.35;;;;;;;;;;4945271;28;20044;-82
2023/12/08 09:16:18;;;;;;;33.60;17.70;;;;;;;;;;4894857;28;20601;-82
2023/12/08 09:18:44;;;;;;;33.78;18.25;;;;;;;;;;4935933;28;20075;-83
2023/12/08 09:21:09;;;;;;;33.97;18.13;;;;;;;;;;4931168;28;20082;-84
2023/12/08 09:23:35;;;;;;;33.10;17.05;;;;;;;;;;4913025;29;20046;-83
2023/12/08 09:26:01;;;;;;;33.10;17.92;;;;;;;;;;4910953;29;20047;-83
2023/12/08 09:28:26;;;;;;;34.88;18.42;;;;;;;;;;4910002;28;20050;-83
2023/12/08 09:30:52;;;;;;;33.63;17.42;;;;;;;;;;4915353;28;20110;-83
2023/12/08 09:33:20;;;;;;;32.90;18.30;;;;;;;;;;4923308;28;20031;-83
2023/12/08 09:35:45;;;;;;;32.67;17.67;;;;;;;;;;4933335;28;20031;-82
2023/12/08 09:38:11;;;;;;;33.22;17.40;;;;;;;;;;4941498;28;20042;-83
2023/12/08 09:40:37;;;;;;;33.17;16.98;;;;;;;;;;4939669;28;20044;-83
2023/12/08 09:43:14;;;;;;;30.97;17.23;;;;;;;;;;4940779;28;20066;-83
2023/12/08 09:45:42;;;;;;;31.10;17.30;;;;;;;;;;4936608;28;20495;-83
2023/12/08 09:48:07;;;;;;;31.70;17.23;;;;;;;;;;4941993;29;20555;-83
2023/12/08 09:50:34;;;;;;;29.92;16.23;;;;;;;;;;4918927;29;20130;-83
2023/12/08 09:53:00;;;;;;;34.65;17.80;;;;;;;;;;4926547;29;20442;-83
2023/12/08 09:55:47;;;;;;;30.40;16.55;;;;;;;;;;4945607;28;20036;-82
2023/12/08 09:58:13;;;;;;;;;;;;;;;;;;4836903;29;20284;-82
2023/12/08 10:00:39;;;;;;;33.63;18.02;;;;;;;;;;4840108;29;20006;-82
2023/12/08 10:03:04;;;;;;;30.77;16.35;;;;;;;;;;4869004;29;20426;-82
2023/12/08 10:05:30;;;;;;;29.33;16.30;;;;;;;;;;4843450;29;20141;-81
2023/12/08 10:08:08;;;;;;;31.88;17.05;;;;;;;;;;4857833;29;20060;-83
2023/12/08 10:10:34;;;;;;;29.00;16.27;;;;;;;;;;4829762;29;20041;-82
2023/12/08 10:12:59;;;;;;;30.67;16.48;;;;;;;;;;4842916;29;20127;-82
2023/12/08 10:15:28;;;;;;;33.55;18.08;;;;;;;;;;4850694;29;20049;-83
2023/12/08 10:17:56;;;;;;;31.30;17.33;;;;;;;;;;4840742;29;20112;-82
2023/12/08 10:20:23;;;;;;;34.15;18.08;;;;;;;;;;4863944;29;20037;-82
2023/12/08 10:22:53;;;;;;;32.53;17.77;;;;;;;;;;4854952;29;20037;-82
2023/12/08 10:25:21;;;;;;;32.47;17.38;;;;;;;;;;4842872;29;20057;-83
2023/12/08 10:27:53;;;;;;;30.35;16.55;;;;;;;;;;4861211;29;20551;-83
2023/12/08 10:30:20;;;;;;;31.02;16.08;;;;;;;;;;4863987;29;20402;-82
2023/12/08 10:32:49;;;;;;;31.55;17.17;;;;;;;;;;4841154;29;20045;-82
2023/12/08 10:35:16;;;;;;;31.25;17.65;;;;;;;;;;4866400;28;20038;-82
2023/12/08 10:37:43;;;;;;;32.42;17.45;;;;;;;;;;4934997;28;20046;-83
2023/12/08 10:40:12;;;;;;;32.42;18.05;;;;;;;;;;4935109;28;20041;-83
2023/12/08 10:42:38;;;;;;;32.20;17.40;;;;;;;;;;4932466;28;20046;-84
2023/12/08 10:45:11;;;;;;;33.63;18.17;;;;;;;;;;4950753;28;20170;-84
2023/12/08 10:47:40;;;;;;;32.25;16.67;;;;;;;;;;4929076;28;20097;-85
2023/12/08 10:50:07;;;;;;;34.60;17.08;;;;;;;;;;4929421;28;20109;-84
2023/12/08 10:52:38;;;;;;;29.50;16.48;;;;;;;;;;4920775;28;20139;-85
2023/12/08 10:55:09;;;;;;;33.53;17.75;;;;;;;;;;4940658;28;20054;-84
2023/12/08 10:57:55;;;;;;;31.23;16.60;;;;;;;;;;4931098;28;20043;-84
2023/12/08 11:00:22;;;;;;;32.60;17.30;;;;;;;;;;4954460;28;20035;-84
2023/12/08 11:03:11;;;;;;;29.73;16.60;;;;;;;;;;4940915;28;20028;-84
2023/12/08 11:05:53;;;;;;;30.38;16.52;;;;;;;;;;4925737;28;20051;-84
2023/12/08 11:08:18;;;;;;;30.23;16.80;;;;;;;;;;4937890;28;20038;-83
2023/12/08 11:10:57;;;;;;;30.50;16.50;;;;;;;;;;4934845;28;20043;-84
2023/12/08 11:13:28;;;;;;;30.67;16.38;;;;;;;;;;4911298;29;20045;-84
2023/12/08 11:16:15;;;;;;;33.10;16.98;;;;;;;;;;4961940;28;20523;-84
2023/12/08 11:18:41;;;;;;;28.83;16.13;;;;;;;;;;4945312;28;20478;-84
2023/12/08 11:21:08;;;;;;;28.05;15.93;;;;;;;;;;4942573;28;20043;-85
2023/12/08 11:23:36;;;;;;;30.70;15.73;;;;;;;;;;4944583;29;20046;-84
2023/12/08 11:26:38;;;;;;;27.67;15.13;;;;;;;;;;4917876;29;20047;-85
2023/12/08 11:29:37;;;;;;;31.63;16.65;;;;;;;;;;4931381;28;20031;-85
2023/12/08 11:32:24;;;;;;;28.90;16.05;;;;;;;;;;4931710;28;20031;-83
2023/12/08 11:35:04;;;;;;;;;;;;;;;;;;4948456;28;20035;-84
2023/12/08 11:37:32;;;;;;;27.15;14.52;;;;;;;;;;4956144;28;19925;-83
2023/12/08 11:40:10;;;;;;;28.67;15.77;;;;;;;;;;4923058;29;20592;-85
2023/12/08 11:42:50;;;;;;;25.90;14.98;;;;;;;;;;4930228;28;20039;-81
2023/12/08 11:45:16;;;;;;;28.67;15.07;;;;;;;;;;4943719;28;20058;-81
2023/12/08 11:47:42;;;;;;;29.45;15.32;;;;;;;;;;4912722;28;20225;-81
2023/12/08 11:50:10;;;;;;;28.00;15.38;;;;;;;;;;4922438;28;20035;-82
2023/12/08 11:52:37;;;;;;;25.25;14.40;;;;;;;;;;4902227;28;20047;-81
2023/12/08 11:55:21;;;;;;;30.60;15.23;;;;;;;;;;4906155;28;20035;-81
2023/12/08 11:58:03;;;;;;;25.83;14.45;;;;;;;;;;4958995;28;20039;-82
2023/12/08 12:00:31;;;;;;;32.75;16.17;;;;;;;;;;4912217;28;20059;-81
2023/12/08 12:02:57;;;;;;;27.08;15.27;;;;;;;;;;4913047;29;20135;-82
2023/12/08 12:05:35;;;;;;;26.10;14.60;;;;;;;;;;4931451;28;20781;-82
2023/12/08 12:08:18;;;;;;;28.98;15.50;;;;;;;;;;4914060;28;20491;-83
2023/12/08 12:10:48;;;;;;;26.63;15.60;;;;;;;;;;4897937;28;20042;-82
2023/12/08 12:13:20;;;;;;;27.45;14.80;;;;;;;;;;4928815;28;20046;-82
2023/12/08 12:15:45;;;;;;;28.23;15.13;;;;;;;;;;4907879;28;20082;-83
2023/12/08 12:18:13;;;;;;;27.35;16.00;;;;;;;;;;4908470;28;20070;-81
2023/12/08 12:20:38;;;;;;;28.40;15.60;;;;;;;;;;4941530;28;20077;-81
2023/12/08 12:23:16;;;;;;;29.10;15.30;;;;;;;;;;4912310;29;20043;-82
2023/12/08 12:25:41;;;;;;;;;;;;;;;;;;4930906;28;20086;-82
2023/12/08 12:28:06;;;;;;;29.45;16.08;;;;;;;;;;4937080;28;19922;-83
2023/12/08 12:30:55;;;;;;;27.77;15.13;;;;;;;;;;4925745;29;20039;-81
2023/12/08 12:33:20;;;;;;;27.35;14.95;;;;;;;;;;4886019;29;20060;-84
2023/12/08 12:35:46;;;;;;;28.88;15.15;;;;;;;;;;4870139;29;20461;-82
2023/12/08 12:38:18;;;;;;;27.67;15.10;;;;;;;;;;4882728;29;20587;-82
2023/12/08 12:41:19;;;;;;;27.65;15.25;;;;;;;;;;4890662;29;20048;-82
2023/12/08 12:43:47;;;;;;;26.20;14.25;;;;;;;;;;4872695;29;20389;-82
2023/12/08 12:46:13;;;;;;;26.85;15.10;;;;;;;;;;4901257;29;20048;-82
2023/12/08 12:49:13;;;;;;;31.77;16.85;;;;;;;;;;4890317;29;20044;-82
2023/12/08 12:51:41;;;;;;;26.63;13.82;;;;;;;;;;4883196;29;20047;-82
2023/12/08 12:54:07;;;;;;;25.05;14.38;;;;;;;;;;4855778;29;20099;-82
2023/12/08 12:56:33;;;;;;;26.50;15.35;;;;;;;;;;4871333;29;20520;-82
2023/12/08 12:59:06;;;;;;;25.85;14.85;;;;;;;;;;4874359;29;21009;-82
2023/12/08 13:01:31;;;;;;;27.83;16.08;;;;;;;;;;4899742;29;20048;-81
2023/12/08 13:03:58;;;;;;;25.88;14.15;;;;;;;;;;4877249;29;20244;-81
2023/12/08 13:06:32;;;;;;;25.95;14.63;;;;;;;;;;4878594;29;20474;-82
2023/12/08 13:09:10;;;;;;;23.60;14.27;;;;;;;;;;4875175;29;20032;-82
2023/12/08 13:14:39;;;;;;;25.98;14.20;;;;;;;;;;4906362;29;20095;-82
2023/12/08 13:17:05;;;;;;;25.02;13.68;;;;;;;;;;4901132;29;20039;-82
2023/12/08 13:19:40;;;;;;;30.20;15.07;;;;;;;;;;4910219;29;20130;-82
2023/12/08 13:25:40;;;;;;;26.38;14.70;;;;;;;;;;4883799;29;20079;-82
2023/12/08 13:28:23;;;;;;;26.13;14.30;;;;;;;;;;4888326;29;20039;-80
2023/12/08 13:30:50;;;;;;;30.33;15.32;;;;;;;;;;4851101;29;20045;-81
2023/12/08 13:33:27;;;;;;;24.90;14.90;;;;;;;;;;4899825;28;20046;-80
2023/12/08 13:36:03;;;;;;;26.30;13.50;;;;;;;;;;4932550;28;20032;-82
2023/12/08 13:39:00;;;;;;;27.02;15.70;;;;;;;;;;4900814;28;21017;-80
2023/12/08 13:41:29;;;;;;;27.95;14.73;;;;;;;;;;4887842;29;20050;-79
2023/12/08 13:44:00;;;;;;;27.08;15.43;;;;;;;;;;4940974;28;20055;-82
2023/12/08 13:46:27;;;;;;;29.17;15.45;;;;;;;;;;4923872;29;20829;-82
2023/12/08 13:48:54;;;;;;;30.90;15.30;;;;;;;;;;4900204;29;20091;-80
2023/12/08 13:51:20;;;;;;;;;;;;;;;;;;4882124;29;20054;-83
2023/12/08 13:53:48;;;;;;;28.30;15.02;;;;;;;;;;4915983;29;19915;-83
2023/12/08 14:00:26;;;;;;;28.65;15.85;;;;;;;;;;4908359;29;20669;-81
2023/12/08 14:03:06;;;;;;;31.70;16.33;;;;;;;;;;4854788;29;20055;-80
2023/12/08 14:05:32;;;;;;;26.88;14.80;;;;;;;;;;4905092;29;20504;-81
2023/12/08 14:07:57;;;;;;;28.92;15.65;;;;;;;;;;4917372;28;20039;-77
2023/12/08 14:10:23;;;;;;;30.17;15.98;;;;;;;;;;4935701;28;20054;-78
2023/12/08 14:12:51;;;;;;;27.70;14.50;;;;;;;;;;4926491;28;20571;-79
2023/12/08 14:15:16;;;;;;;28.05;15.77;;;;;;;;;;4933129;28;20031;-80
2023/12/08 14:17:42;;;;;;;28.92;15.40;;;;;;;;;;4939593;29;20495;-78
2023/12/08 14:20:08;;;;;;;26.80;14.82;;;;;;;;;;4940518;28;20099;-76
2023/12/08 14:22:34;;;;;;;28.30;16.45;;;;;;;;;;4934455;29;20051;-76
2023/12/08 14:25:00;;;;;;;30.45;16.33;;;;;;;;;;4939158;28;20838;-76
2023/12/08 14:27:26;;;;;;;32.60;17.08;;;;;;;;;;4937511;29;21177;-76
2023/12/08 14:29:51;;;;;;;28.30;16.55;;;;;;;;;;4939167;29;20047;-76
2023/12/08 14:32:18;;;;;;;30.85;16.10;;;;;;;;;;4934508;28;20046;-78
2023/12/08 14:34:47;;;;;;;29.23;16.03;;;;;;;;;;4925345;28;20114;-79
2023/12/08 14:37:12;;;;;;;29.75;16.13;;;;;;;;;;4938547;28;20470;-79
2023/12/08 14:39:38;;;;;;;29.27;16.38;;;;;;;;;;4927820;29;20039;-78